KRKP/RKP METAR and TAF weather

Enter ICAO airport designator
Station Type Date Time Source
KRKP METAR 2018/12/11 22:53 UTC NOAA

KRKP 112253Z AUTO 07004KT 9SM CLR 14/11 A3025 RMK AO2 SLP244 T01440111


Station Type Date Time Source
KRKP Decoded METAR 2018/12/11 22:53 UTC NOAA

ROCKPORT ARANSAS COUNTY AIRPORT , TX, United States (KRKP) 28-05N 97-03W 6M
Dec 11, 2018 - 05:53 PM EST / 2018.12.11 2253 UTC
Wind: from the ENE (070 degrees) at 5 MPH (4 KT):0
Visibility: 9 mile(s):0
Sky conditions: clear
Temperature: 57.9 F (14.4 C)
Dew Point: 52.0 F (11.1 C)
Relative Humidity: 80%
Pressure (altimeter): 30.25 in. Hg (1024 hPa)
ob: KRKP 112253Z AUTO 07004KT 9SM CLR 14/11 A3025 RMK AO2 SLP244 T01440111
cycle: 23

Station Type Date Time Source
KRKP TAF UTC NOAA

Error!


Example: see airport list